createdAt,value
2016-11-22T00:00:23.593Z,0
2016-11-22T00:01:38.140Z,0
2016-11-22T00:02:52.243Z,0
2016-11-22T00:04:06.700Z,0
2016-11-22T00:05:21.260Z,0
2016-11-22T00:06:35.799Z,0
2016-11-22T00:07:49.870Z,0
2016-11-22T00:09:04.137Z,0
2016-11-22T00:10:18.216Z,0
2016-11-22T00:11:33.671Z,0
2016-11-22T00:12:48.336Z,0
2016-11-22T00:14:02.547Z,0
2016-11-22T00:15:16.742Z,0
2016-11-22T00:16:31.358Z,0
2016-11-22T00:17:46.141Z,0
2016-11-22T00:19:00.781Z,0
2016-11-22T00:20:15.495Z,0
2016-11-22T00:21:29.546Z,0
2016-11-22T00:22:43.961Z,0
2016-11-22T00:23:58.165Z,0
2016-11-22T00:25:13.077Z,0
2016-11-22T00:26:27.845Z,0
2016-11-22T00:27:41.980Z,0
2016-11-22T00:28:56.832Z,0
2016-11-22T00:30:11.289Z,0
2016-11-22T00:31:26.601Z,0
2016-11-22T00:32:40.694Z,0
2016-11-22T00:33:54.878Z,0
2016-11-22T00:35:11.289Z,0
2016-11-22T00:36:26.395Z,0
2016-11-22T00:37:40.844Z,0
2016-11-22T00:38:55.317Z,0
2016-11-22T00:40:10.199Z,0
2016-11-22T00:41:24.519Z,0
2016-11-22T00:42:38.701Z,0
2016-11-22T00:43:53.761Z,0
2016-11-22T00:45:07.905Z,0
2016-11-22T00:46:22.568Z,0
2016-11-22T00:47:37.371Z,0
2016-11-22T00:48:51.495Z,0
2016-11-22T00:50:06.311Z,0
2016-11-22T00:51:20.439Z,0
2016-11-22T00:52:34.728Z,0
2016-11-22T00:53:48.897Z,0
2016-11-22T00:55:03.730Z,0
2016-11-22T00:56:18.195Z,0
2016-11-22T00:57:32.722Z,0
2016-11-22T00:58:46.804Z,0
2016-11-22T01:00:01.479Z,0
2016-11-22T01:01:16.338Z,0
2016-11-22T01:05:28.053Z,0
2016-11-22T01:06:42.155Z,0
2016-11-22T01:07:56.471Z,0
2016-11-22T01:09:10.571Z,0
2016-11-22T01:10:25.019Z,0
2016-11-22T01:11:39.499Z,0
2016-11-22T01:12:53.936Z,0
2016-11-22T01:14:08.402Z,0
2016-11-22T01:15:22.440Z,0
2016-11-22T01:16:36.596Z,0
2016-11-22T01:17:50.839Z,0
2016-11-22T01:19:05.778Z,0
2016-11-22T01:20:20.081Z,0
2016-11-22T01:21:34.193Z,0
2016-11-22T01:22:48.575Z,0
2016-11-22T01:24:02.985Z,0
2016-11-22T01:25:17.041Z,0
2016-11-22T01:26:31.538Z,0
2016-11-22T01:27:45.891Z,0
2016-11-22T01:28:59.981Z,0
2016-11-22T01:30:14.934Z,0
2016-11-22T01:31:29.658Z,0
2016-11-22T01:32:44.710Z,0
2016-11-22T01:33:58.766Z,0
2016-11-22T01:35:12.912Z,0
2016-11-22T01:36:27.124Z,0
2016-11-22T01:37:41.640Z,0
2016-11-22T01:38:56.503Z,0
2016-11-22T01:40:10.606Z,0
2016-11-22T01:41:25.073Z,0
2016-11-22T01:42:39.287Z,0
2016-11-22T01:43:53.692Z,0
2016-11-22T01:45:08.020Z,0
2016-11-22T01:46:22.281Z,0
2016-11-22T01:47:36.635Z,0
2016-11-22T01:48:50.830Z,0
2016-11-22T01:50:05.123Z,0
2016-11-22T01:51:19.548Z,0
2016-11-22T01:52:33.921Z,0
2016-11-22T01:53:50.581Z,0
2016-11-22T01:55:04.697Z,0
2016-11-22T01:56:19.010Z,0
2016-11-22T01:57:33.355Z,0
2016-11-22T01:58:47.453Z,0
2016-11-22T02:00:02.143Z,0
2016-11-22T02:01:16.547Z,0
2016-11-22T02:02:31.037Z,0
2016-11-22T02:03:46.021Z,0
2016-11-22T02:05:00.449Z,0
2016-11-22T02:06:14.515Z,0
2016-11-22T02:07:28.847Z,0
2016-11-22T02:08:42.977Z,0
2016-11-22T02:09:57.345Z,0
2016-11-22T02:11:11.758Z,0
2016-11-22T02:12:26.148Z,0
2016-11-22T02:13:40.236Z,0
2016-11-22T02:14:54.643Z,0
2016-11-22T02:16:09.387Z,0
2016-11-22T02:17:23.421Z,0
2016-11-22T02:18:37.460Z,0
2016-11-22T02:19:51.799Z,0
2016-11-22T02:21:06.129Z,0
2016-11-22T02:22:20.441Z,0
2016-11-22T02:23:34.476Z,0
2016-11-22T02:24:48.589Z,0
2016-11-22T02:26:03.316Z,0
2016-11-22T02:27:17.353Z,0
2016-11-22T02:28:31.902Z,0
2016-11-22T02:29:45.990Z,0
2016-11-22T02:31:00.139Z,0
2016-11-22T02:32:14.848Z,0
2016-11-22T02:33:28.940Z,0
2016-11-22T02:34:43.777Z,0
2016-11-22T02:35:57.865Z,0
2016-11-22T02:37:11.936Z,0
2016-11-22T02:38:26.039Z,0
2016-11-22T02:39:40.431Z,0
2016-11-22T02:40:55.166Z,0
2016-11-22T02:42:09.372Z,0
2016-11-22T02:43:23.430Z,0
2016-11-22T02:44:38.228Z,0
2016-11-22T02:45:52.369Z,0
2016-11-22T02:47:50.961Z,0
2016-11-22T02:49:05.264Z,0
2016-11-22T02:50:19.304Z,0
2016-11-22T02:51:33.647Z,0
2016-11-22T02:52:47.735Z,0
2016-11-22T02:54:02.394Z,0
2016-11-22T02:55:16.998Z,0
2016-11-22T02:56:31.226Z,0
2016-11-22T02:57:45.897Z,0
2016-11-22T02:58:59.963Z,0
2016-11-22T03:00:14.597Z,0
2016-11-22T03:01:28.959Z,0
2016-11-22T03:02:43.665Z,0
2016-11-22T03:03:57.988Z,0
2016-11-22T03:05:12.068Z,0
2016-11-22T03:06:26.761Z,0
2016-11-22T03:07:41.145Z,0
2016-11-22T03:08:55.604Z,0
2016-11-22T03:10:10.541Z,0
2016-11-22T03:11:27.058Z,0
2016-11-22T03:12:41.136Z,0
2016-11-22T03:13:55.463Z,0
2016-11-22T03:15:09.506Z,0
2016-11-22T03:16:23.608Z,0
2016-11-22T03:17:38.704Z,0
2016-11-22T03:18:52.836Z,0
2016-11-22T03:20:07.499Z,0
2016-11-22T03:21:21.580Z,0
2016-11-22T03:22:35.707Z,0
2016-11-22T03:23:50.344Z,0
2016-11-22T03:25:04.380Z,0
2016-11-22T03:26:18.670Z,0
2016-11-22T03:27:32.756Z,0
2016-11-22T03:28:47.122Z,0
2016-11-22T03:30:01.182Z,0
2016-11-22T03:31:15.464Z,0
2016-11-22T03:32:29.837Z,0
2016-11-22T03:33:44.004Z,0
2016-11-22T03:34:58.100Z,0
2016-11-22T03:36:12.404Z,0
2016-11-22T03:37:26.493Z,0
2016-11-22T03:38:40.845Z,0
2016-11-22T03:39:55.507Z,0
2016-11-22T03:41:10.177Z,0
2016-11-22T03:42:24.206Z,0
2016-11-22T03:43:38.365Z,0
2016-11-22T03:44:52.647Z,0
2016-11-22T03:46:07.089Z,0
2016-11-22T03:47:21.629Z,0
2016-11-22T03:48:35.728Z,0
2016-11-22T03:49:50.125Z,0
2016-11-22T03:51:04.425Z,0
2016-11-22T03:52:21.545Z,0
2016-11-22T03:53:35.658Z,0
2016-11-22T03:54:50.417Z,0
2016-11-22T03:56:04.741Z,0
2016-11-22T03:57:19.071Z,0
2016-11-22T03:58:33.244Z,0
2016-11-22T03:59:47.356Z,0
2016-11-22T04:01:01.731Z,0
2016-11-22T04:02:16.436Z,0
2016-11-22T04:03:30.731Z,0
2016-11-22T04:04:44.852Z,0
2016-11-22T04:05:58.949Z,0
2016-11-22T04:07:13.009Z,0
2016-11-22T04:08:27.446Z,0
2016-11-22T04:09:42.148Z,0
2016-11-22T04:10:56.474Z,0
2016-11-22T04:12:11.217Z,0
2016-11-22T04:13:25.520Z,0
2016-11-22T04:14:39.535Z,0
2016-11-22T04:15:54.257Z,0
2016-11-22T04:17:08.435Z,0
2016-11-22T04:18:22.743Z,0
2016-11-22T04:19:36.940Z,0
2016-11-22T04:20:51.372Z,0
2016-11-22T04:22:05.713Z,0
2016-11-22T04:23:19.793Z,0
2016-11-22T04:27:31.672Z,0
2016-11-22T04:28:45.844Z,0
2016-11-22T04:30:02.164Z,0
2016-11-22T04:31:16.472Z,0
2016-11-22T04:32:30.619Z,0
2016-11-22T04:33:44.935Z,0
2016-11-22T04:34:59.327Z,0
2016-11-22T04:36:13.435Z,0
2016-11-22T04:37:28.168Z,0
2016-11-22T04:38:42.222Z,0
2016-11-22T04:39:56.962Z,0
2016-11-22T04:41:11.127Z,0
2016-11-22T04:42:25.368Z,0
2016-11-22T04:43:39.884Z,0
2016-11-22T04:44:54.000Z,0
2016-11-22T04:46:08.343Z,0
2016-11-22T04:47:22.459Z,0
2016-11-22T04:48:37.063Z,0
2016-11-22T04:49:51.394Z,0
2016-11-22T04:51:06.021Z,0
2016-11-22T04:52:20.399Z,0
2016-11-22T04:53:34.480Z,0
2016-11-22T04:54:49.260Z,0
2016-11-22T04:56:04.180Z,0
2016-11-22T04:57:19.018Z,0
2016-11-22T04:58:34.533Z,0
2016-11-22T04:59:50.214Z,0
2016-11-22T05:01:11.194Z,0
2016-11-22T05:02:33.212Z,0
2016-11-22T05:03:58.351Z,0
2016-11-22T05:05:22.720Z,0
2016-11-22T05:06:46.765Z,0
2016-11-22T05:08:11.650Z,0
2016-11-22T05:09:37.022Z,0
2016-11-22T05:10:55.797Z,0
2016-11-22T05:12:34.116Z,0
2016-11-22T05:13:55.214Z,0
2016-11-22T05:15:13.896Z,0
2016-11-22T05:16:34.270Z,0
2016-11-22T05:17:55.330Z,0
2016-11-22T05:19:14.836Z,0
2016-11-22T05:20:33.838Z,0
2016-11-22T05:21:51.623Z,0
2016-11-22T05:23:09.482Z,0
2016-11-22T05:24:30.115Z,0
2016-11-22T05:25:50.014Z,0
2016-11-22T05:27:09.579Z,0
2016-11-22T05:28:31.525Z,0
2016-11-22T05:29:51.268Z,0
2016-11-22T05:31:10.548Z,0
2016-11-22T05:32:31.144Z,0
2016-11-22T05:33:49.536Z,0
2016-11-22T05:35:11.228Z,0
2016-11-22T05:36:29.903Z,0
2016-11-22T05:37:48.227Z,0
2016-11-22T05:39:07.384Z,0
2016-11-22T05:40:24.991Z,0
2016-11-22T05:41:42.473Z,0
2016-11-22T05:42:59.235Z,0
2016-11-22T05:44:15.182Z,0
2016-11-22T05:45:35.922Z,0
2016-11-22T05:46:56.161Z,0
2016-11-22T05:48:27.509Z,0
2016-11-22T05:49:46.061Z,0
2016-11-22T05:51:07.557Z,0
2016-11-22T05:52:27.257Z,0
2016-11-22T05:53:44.511Z,0
2016-11-22T05:55:03.835Z,0
2016-11-22T05:56:22.091Z,0
2016-11-22T05:57:39.532Z,0
2016-11-22T05:58:58.588Z,0
2016-11-22T06:00:16.826Z,0
2016-11-22T06:01:35.124Z,0
2016-11-22T06:02:55.272Z,0
2016-11-22T06:04:14.936Z,0
2016-11-22T06:05:32.917Z,0
2016-11-22T06:06:51.352Z,0
2016-11-22T06:08:10.434Z,0
2016-11-22T06:09:26.327Z,0
2016-11-22T06:10:41.847Z,0
2016-11-22T06:11:56.964Z,0
2016-11-22T06:13:13.762Z,0
2016-11-22T06:14:30.401Z,0
2016-11-22T06:15:48.068Z,0
2016-11-22T06:17:05.060Z,0
2016-11-22T06:18:22.703Z,0
2016-11-22T06:19:41.544Z,0
2016-11-22T06:21:13.577Z,0
2016-11-22T06:22:29.752Z,0
2016-11-22T06:23:46.430Z,0
2016-11-22T06:25:03.434Z,0
2016-11-22T06:26:21.128Z,0
2016-11-22T06:27:38.074Z,4
2016-11-22T06:28:53.047Z,4
2016-11-22T06:30:09.444Z,0
2016-11-22T06:31:25.779Z,4
2016-11-22T06:32:40.638Z,4
2016-11-22T06:33:55.656Z,4
2016-11-22T06:35:09.722Z,4
2016-11-22T06:36:23.999Z,8
2016-11-22T06:37:38.249Z,8
2016-11-22T06:38:52.560Z,12
2016-11-22T06:40:07.180Z,16
2016-11-22T06:41:22.047Z,12
2016-11-22T06:42:36.868Z,16
2016-11-22T06:43:52.118Z,16
2016-11-22T06:45:06.633Z,20
2016-11-22T06:46:21.456Z,24
2016-11-22T06:47:36.053Z,24
2016-11-22T06:48:50.740Z,24
2016-11-22T06:50:05.578Z,28
2016-11-22T06:51:20.299Z,32
2016-11-22T06:52:34.590Z,32
2016-11-22T06:53:49.338Z,36
2016-11-22T06:55:03.801Z,36
2016-11-22T06:56:17.878Z,40
2016-11-22T06:57:32.268Z,44
2016-11-22T06:58:46.919Z,48
2016-11-22T07:00:00.945Z,52
2016-11-22T07:01:15.611Z,56
2016-11-22T07:02:29.724Z,64
2016-11-22T07:03:44.129Z,64
2016-11-22T07:04:58.729Z,68
2016-11-22T07:06:12.772Z,76
2016-11-22T07:07:26.908Z,84
2016-11-22T07:08:41.599Z,96
2016-11-22T07:09:58.400Z,100
2016-11-22T07:11:12.853Z,104
2016-11-22T07:12:27.459Z,112
2016-11-22T07:13:41.529Z,124
2016-11-22T07:14:55.775Z,136
2016-11-22T07:16:10.193Z,148
2016-11-22T07:17:25.162Z,156
2016-11-22T07:18:39.637Z,168
2016-11-22T07:19:54.302Z,184
2016-11-22T07:21:08.370Z,200
2016-11-22T07:22:22.978Z,216
2016-11-22T07:23:37.895Z,236
2016-11-22T07:24:53.298Z,252
2016-11-22T07:26:22.507Z,260
2016-11-22T07:27:37.186Z,264
2016-11-22T07:28:51.882Z,276
2016-11-22T07:30:06.396Z,288
2016-11-22T07:31:20.431Z,304
2016-11-22T07:32:34.800Z,328
2016-11-22T07:33:49.443Z,364
2016-11-22T07:35:04.471Z,408
2016-11-22T07:36:19.011Z,456
2016-11-22T07:37:33.070Z,492
2016-11-22T07:38:47.130Z,524
2016-11-22T07:40:01.391Z,536
2016-11-22T07:41:16.013Z,552
2016-11-22T07:42:30.448Z,576
2016-11-22T07:43:45.004Z,600
2016-11-22T07:44:59.236Z,624
2016-11-22T07:46:13.873Z,644
2016-11-22T07:47:28.488Z,668
2016-11-22T07:48:43.298Z,696
2016-11-22T07:49:57.866Z,728
2016-11-22T07:51:12.331Z,768
2016-11-22T07:52:27.090Z,792
2016-11-22T07:53:41.709Z,808
2016-11-22T07:54:55.853Z,816
2016-11-22T07:56:10.078Z,824
2016-11-22T07:57:24.680Z,840
2016-11-22T07:58:38.865Z,872
2016-11-22T07:59:53.317Z,900
2016-11-22T08:03:36.025Z,948
2016-11-22T08:04:50.681Z,940
2016-11-22T08:06:05.459Z,944
2016-11-22T08:07:20.238Z,940
2016-11-22T08:08:34.974Z,928
2016-11-22T08:09:49.711Z,920
2016-11-22T08:11:04.482Z,912
2016-11-22T08:12:19.257Z,904
2016-11-22T08:13:33.940Z,916
2016-11-22T08:14:48.561Z,924
2016-11-22T08:16:03.804Z,924
2016-11-22T08:17:18.220Z,952
2016-11-22T08:18:33.245Z,984
2016-11-22T08:19:47.500Z,1020
2016-11-22T08:21:16.864Z,1072
2016-11-22T08:22:31.244Z,1108
2016-11-22T08:23:45.665Z,1136
2016-11-22T08:25:01.046Z,1148
2016-11-22T08:26:15.566Z,1188
2016-11-22T08:27:30.267Z,1216
2016-11-22T08:28:47.501Z,1248
2016-11-22T08:30:02.039Z,1272
2016-11-22T08:31:16.681Z,1312
2016-11-22T08:32:45.941Z,1352
2016-11-22T08:34:01.292Z,1380
2016-11-22T08:35:16.046Z,1392
2016-11-22T08:36:31.013Z,1408
2016-11-22T08:37:46.331Z,1436
2016-11-22T08:39:01.007Z,1456
2016-11-22T08:40:15.659Z,1488
2016-11-22T08:45:41.364Z,1540
2016-11-22T08:46:57.199Z,1556
2016-11-22T08:48:12.158Z,1576
2016-11-22T08:49:26.884Z,1604
2016-11-22T08:50:41.585Z,1612
2016-11-22T08:51:56.691Z,1612
2016-11-22T08:53:12.147Z,1604
2016-11-22T08:54:27.181Z,1604
2016-11-22T08:55:42.160Z,1616
2016-11-22T08:56:56.864Z,1620
2016-11-22T08:58:11.319Z,1616
2016-11-22T08:59:26.096Z,1604
2016-11-22T09:00:41.173Z,1596
2016-11-22T09:01:55.486Z,1616
2016-11-22T09:03:10.142Z,1656
2016-11-22T09:04:24.632Z,1676
2016-11-22T09:05:39.362Z,1640
2016-11-22T09:06:54.187Z,1592
2016-11-22T09:08:08.568Z,1596
2016-11-22T09:09:22.824Z,1592
2016-11-22T09:10:37.914Z,1556
2016-11-22T09:13:39.133Z,1532
2016-11-22T09:20:29.843Z,1368
2016-11-22T09:22:03.530Z,1340
2016-11-22T09:23:57.483Z,1348
2016-11-22T09:25:31.673Z,1372
2016-11-22T09:27:06.062Z,1388
2016-11-22T09:28:39.599Z,1436
2016-11-22T09:30:13.486Z,1500
2016-11-22T09:31:47.934Z,1536
2016-11-22T09:33:21.545Z,1560
2016-11-22T09:34:55.693Z,1572
2016-11-22T09:36:29.405Z,1604
2016-11-22T09:38:03.704Z,1632
2016-11-22T09:39:37.327Z,1608
2016-11-22T09:41:11.404Z,1540
2016-11-22T09:43:04.497Z,1468
2016-11-22T09:44:38.724Z,1428
2016-11-22T09:46:12.622Z,1452
2016-11-22T09:48:14.215Z,1448
2016-11-22T09:49:48.332Z,1284
2016-11-22T09:51:22.305Z,1224
2016-11-22T09:52:55.728Z,1292
2016-11-22T09:54:30.251Z,1324
2016-11-22T09:56:03.898Z,1332
2016-11-22T09:57:37.904Z,1296
2016-11-22T09:59:11.423Z,1312
2016-11-22T10:00:45.596Z,1336
2016-11-22T10:02:20.352Z,1324
2016-11-22T10:04:17.316Z,1316
2016-11-22T10:05:50.769Z,1240
2016-11-22T10:07:24.695Z,1248
2016-11-22T10:08:58.501Z,1316
2016-11-22T10:10:32.473Z,1352
2016-11-22T10:12:06.193Z,1344
2016-11-22T10:13:40.647Z,1356
2016-11-22T10:15:13.900Z,1328
2016-11-22T10:16:48.181Z,1356
2016-11-22T10:21:27.052Z,1348
2016-11-22T10:23:00.812Z,1384
2016-11-22T10:24:35.224Z,1404
2016-11-22T10:26:28.328Z,1432
2016-11-22T10:28:02.230Z,1444
2016-11-22T10:29:36.818Z,1516
2016-11-22T10:31:10.446Z,1512
2016-11-22T10:32:43.965Z,1488
2016-11-22T10:34:17.753Z,1484
2016-11-22T10:35:51.461Z,1420
2016-11-22T10:37:24.893Z,1352
2016-11-22T10:38:58.972Z,1340
2016-11-22T10:40:34.210Z,1288
2016-11-22T10:42:03.861Z,1256
2016-11-22T10:43:37.506Z,1264
2016-11-22T10:48:21.131Z,1092
2016-11-22T10:49:54.778Z,1068
2016-11-22T10:51:48.685Z,1092
2016-11-22T10:53:22.911Z,1120
2016-11-22T10:54:57.546Z,1180
2016-11-22T10:56:31.357Z,1292
2016-11-22T10:58:05.318Z,1412
2016-11-22T10:59:38.982Z,1536
2016-11-22T11:01:13.274Z,1612
2016-11-22T11:02:46.533Z,1552
2016-11-22T11:04:20.071Z,1624
2016-11-22T11:05:53.338Z,1720
2016-11-22T11:07:26.917Z,1596
2016-11-22T11:09:01.477Z,1572
2016-11-22T11:10:54.569Z,1680
2016-11-22T11:12:28.682Z,1780
2016-11-22T11:17:37.731Z,1864
2016-11-22T11:19:11.724Z,1828
2016-11-22T11:20:45.430Z,1852
2016-11-22T11:22:19.101Z,1872
2016-11-22T11:23:52.807Z,1896
2016-11-22T11:25:26.990Z,1916
2016-11-22T11:27:00.726Z,1952
2016-11-22T11:28:34.638Z,2080
2016-11-22T11:30:08.477Z,2236
2016-11-22T11:31:42.574Z,2368
2016-11-22T11:33:16.639Z,2416
2016-11-22T11:34:50.093Z,2424
2016-11-22T11:36:23.981Z,2472
2016-11-22T11:37:57.879Z,2588
2016-11-22T11:39:26.847Z,2700
2016-11-22T11:41:00.792Z,2796
2016-11-22T11:42:34.749Z,2860
2016-11-22T11:44:09.368Z,2936
2016-11-22T11:46:02.961Z,2956
2016-11-22T11:47:39.274Z,2856
2016-11-22T11:49:13.058Z,2768
2016-11-22T11:50:47.105Z,2660
2016-11-22T11:52:20.571Z,2496
2016-11-22T11:53:56.128Z,2320
2016-11-22T11:55:29.902Z,2172
2016-11-22T11:57:03.490Z,2096
2016-11-22T11:58:37.284Z,2096
2016-11-22T12:00:31.297Z,2160
2016-11-22T12:02:04.889Z,2216
2016-11-22T12:03:39.001Z,2236
2016-11-22T12:05:15.000Z,2284
2016-11-22T12:09:26.916Z,2392
2016-11-22T12:11:00.330Z,2412
2016-11-22T12:12:34.802Z,2460
2016-11-22T12:14:03.210Z,2452
2016-11-22T12:15:38.774Z,2440
2016-11-22T12:17:12.548Z,2440
2016-11-22T12:18:46.348Z,2436
2016-11-22T12:20:19.713Z,2432
2016-11-22T12:21:54.027Z,2432
2016-11-22T12:23:28.759Z,2460
2016-11-22T12:24:58.227Z,2492
2016-11-22T12:26:26.879Z,2536
2016-11-22T12:28:00.763Z,2584
2016-11-22T12:29:34.688Z,2648
2016-11-22T12:31:08.361Z,2656
2016-11-22T12:32:42.274Z,2620
2016-11-22T12:34:16.176Z,2568
2016-11-22T12:35:50.260Z,2516
2016-11-22T12:37:24.105Z,2460
2016-11-22T12:38:58.255Z,2436
2016-11-22T12:40:33.100Z,2352
2016-11-22T12:42:26.361Z,2256
2016-11-22T12:43:56.022Z,2212
2016-11-22T12:45:10.545Z,2248
2016-11-22T12:46:44.542Z,2356
2016-11-22T12:48:18.218Z,2448
2016-11-22T12:50:11.494Z,2556
2016-11-22T12:51:45.091Z,2680
2016-11-22T12:53:18.813Z,2728
2016-11-22T12:54:52.220Z,2676
2016-11-22T12:56:26.246Z,2700
2016-11-22T12:57:59.828Z,2732
2016-11-22T12:59:33.897Z,2740
2016-11-22T13:01:07.610Z,2708
2016-11-22T13:02:37.346Z,2632
2016-11-22T13:04:10.833Z,2620
2016-11-22T13:05:44.662Z,2564
2016-11-22T13:07:18.498Z,2464
2016-11-22T13:08:52.099Z,2452
2016-11-22T13:10:26.725Z,2456
2016-11-22T13:12:00.631Z,2420
2016-11-22T13:13:34.024Z,2472
2016-11-22T13:15:07.594Z,2592
2016-11-22T13:16:41.495Z,2700
2016-11-22T13:18:15.478Z,2608
2016-11-22T13:19:49.145Z,2456
2016-11-22T13:21:22.823Z,2584
2016-11-22T13:22:51.888Z,2568
2016-11-22T13:24:26.003Z,2504
2016-11-22T13:26:01.896Z,2536
2016-11-22T13:27:54.492Z,2600
2016-11-22T13:29:28.523Z,2544
2016-11-22T13:31:02.879Z,2532
2016-11-22T13:32:36.785Z,2456
2016-11-22T13:36:11.490Z,2472
2016-11-22T13:37:45.607Z,2340
2016-11-22T13:39:19.161Z,2024
2016-11-22T13:40:52.736Z,1828
2016-11-22T13:42:26.185Z,1736
2016-11-22T13:44:00.667Z,1680
2016-11-22T13:45:35.151Z,1648
2016-11-22T13:47:09.965Z,1616
2016-11-22T13:48:43.297Z,1584
2016-11-22T13:50:17.835Z,1564
2016-11-22T13:52:12.505Z,1528
2016-11-22T13:53:45.970Z,1480
2016-11-22T13:55:20.363Z,1504
2016-11-22T13:56:55.354Z,1592
2016-11-22T13:58:29.267Z,1624
2016-11-22T14:00:02.802Z,1656
2016-11-22T14:01:36.973Z,1712
2016-11-22T14:06:12.718Z,1560
2016-11-22T14:07:44.810Z,1488
2016-11-22T14:09:18.766Z,1408
2016-11-22T14:10:52.686Z,1352
2016-11-22T14:12:26.274Z,1332
2016-11-22T14:13:54.837Z,1348
2016-11-22T14:15:23.707Z,1392
2016-11-22T14:16:38.743Z,1428
2016-11-22T14:18:32.574Z,1440
2016-11-22T14:20:06.213Z,1444
2016-11-22T14:21:40.336Z,1404
2016-11-22T14:23:14.569Z,1296
2016-11-22T14:24:48.526Z,1228
2016-11-22T14:26:22.474Z,1172
2016-11-22T14:27:56.358Z,1108
2016-11-22T14:29:31.020Z,1040
2016-11-22T14:31:05.126Z,992
2016-11-22T14:32:40.077Z,932
2016-11-22T14:34:33.547Z,888
2016-11-22T14:36:09.778Z,832
2016-11-22T14:37:44.394Z,792
2016-11-22T14:39:18.207Z,780
2016-11-22T14:40:52.467Z,752
2016-11-22T14:42:26.529Z,704
2016-11-22T14:44:01.246Z,644
2016-11-22T14:45:35.759Z,580
2016-11-22T14:47:29.480Z,524
2016-11-22T14:49:03.164Z,484
2016-11-22T14:50:37.384Z,444
2016-11-22T14:52:11.511Z,412
2016-11-22T14:53:45.724Z,376
2016-11-22T14:55:20.486Z,352
2016-11-22T14:57:22.494Z,328
2016-11-22T14:58:56.851Z,320
2016-11-22T15:00:31.532Z,308
2016-11-22T15:02:06.119Z,292
2016-11-22T15:03:40.047Z,284
2016-11-22T15:05:33.440Z,272
2016-11-22T15:07:09.586Z,260
2016-11-22T15:08:43.432Z,252
2016-11-22T15:10:17.238Z,244
2016-11-22T15:11:51.079Z,220
2016-11-22T15:13:25.195Z,200
2016-11-22T15:14:59.232Z,184
2016-11-22T15:17:00.472Z,164
2016-11-22T15:18:34.743Z,148
2016-11-22T15:20:10.581Z,136
2016-11-22T15:21:40.933Z,116
2016-11-22T15:23:15.567Z,104
2016-11-22T15:24:49.667Z,92
2016-11-22T15:26:19.969Z,80
2016-11-22T15:27:53.884Z,72
2016-11-22T15:29:28.767Z,60
2016-11-22T15:31:02.592Z,52
2016-11-22T15:32:58.425Z,40
2016-11-22T15:34:31.976Z,32
2016-11-22T15:36:06.346Z,28
2016-11-22T15:37:44.906Z,24
2016-11-22T15:39:44.555Z,16
2016-11-22T15:41:18.348Z,12
2016-11-22T15:42:51.889Z,12
2016-11-22T15:44:26.081Z,8
2016-11-22T15:46:00.616Z,8
2016-11-22T15:47:30.623Z,4
2016-11-22T15:49:04.357Z,4
2016-11-22T15:50:38.200Z,4
2016-11-22T15:52:12.303Z,4
2016-11-22T15:53:46.759Z,4
2016-11-22T15:55:20.188Z,0
2016-11-22T15:56:53.743Z,0
2016-11-22T15:58:46.907Z,0
2016-11-22T16:00:21.461Z,0
2016-11-22T16:01:55.700Z,0
2016-11-22T16:03:29.127Z,0
2016-11-22T16:05:03.291Z,0
2016-11-22T16:06:37.904Z,0
2016-11-22T16:08:11.967Z,0
2016-11-22T16:09:45.469Z,0
2016-11-22T16:11:19.616Z,0
2016-11-22T16:12:53.659Z,0
2016-11-22T16:14:47.614Z,0
2016-11-22T16:16:22.105Z,0
2016-11-22T16:17:56.938Z,0
2016-11-22T16:19:30.415Z,0
2016-11-22T16:21:04.032Z,0
2016-11-22T16:22:38.295Z,0
2016-11-22T16:24:12.664Z,0
2016-11-22T16:25:47.499Z,0
2016-11-22T16:27:21.824Z,0
2016-11-22T16:28:55.820Z,0
2016-11-22T16:30:57.173Z,0
2016-11-22T16:32:33.167Z,0
2016-11-22T16:34:27.011Z,0
2016-11-22T16:36:16.650Z,0
2016-11-22T16:37:50.746Z,0
2016-11-22T16:39:24.792Z,0
2016-11-22T16:42:08.868Z,0
2016-11-22T16:43:52.859Z,0
2016-11-22T16:45:46.016Z,0
2016-11-22T16:52:05.492Z,0
2016-11-22T16:56:36.130Z,0
2016-11-22T16:58:11.293Z,0
2016-11-22T16:59:44.942Z,0
2016-11-22T17:01:15.199Z,0
2016-11-22T17:02:30.573Z,0
2016-11-22T17:05:01.638Z,0
2016-11-22T17:06:35.316Z,0
2016-11-22T17:08:09.283Z,0
2016-11-22T17:09:42.471Z,0
2016-11-22T17:11:16.212Z,0
2016-11-22T17:12:45.922Z,0
2016-11-22T17:14:20.997Z,0
2016-11-22T17:15:55.844Z,0
2016-11-22T17:17:30.610Z,0
2016-11-22T17:19:23.382Z,0
2016-11-22T17:20:57.196Z,0
2016-11-22T17:22:32.296Z,0
2016-11-22T17:24:06.763Z,0
2016-11-22T17:27:16.964Z,0
2016-11-22T17:29:24.527Z,0
2016-11-22T17:30:58.554Z,0
2016-11-22T17:32:32.399Z,0
2016-11-22T17:34:26.076Z,0
2016-11-22T17:35:59.636Z,0
2016-11-22T17:37:34.089Z,0
2016-11-22T17:39:08.504Z,0
2016-11-22T17:40:42.553Z,0
2016-11-22T17:42:16.381Z,0
2016-11-22T17:43:49.083Z,0
2016-11-22T17:45:22.478Z,0
2016-11-22T17:46:57.076Z,0
2016-11-22T17:48:30.522Z,0
2016-11-22T17:50:31.784Z,0
2016-11-22T17:52:06.326Z,0
2016-11-22T17:53:42.009Z,0
2016-11-22T17:55:14.316Z,0
2016-11-22T17:56:48.570Z,0
2016-11-22T17:58:23.247Z,0
2016-11-22T18:00:15.954Z,0
2016-11-22T18:01:50.009Z,0
2016-11-22T18:03:24.593Z,0
2016-11-22T18:04:58.492Z,0
2016-11-22T18:06:27.905Z,0
2016-11-22T18:08:02.150Z,0
2016-11-22T18:11:40.779Z,0
2016-11-22T18:13:10.345Z,0
2016-11-22T18:14:44.567Z,0
2016-11-22T18:16:21.334Z,0
2016-11-22T18:17:56.102Z,0
2016-11-22T18:19:30.034Z,0
2016-11-22T18:21:05.158Z,0
2016-11-22T18:23:08.326Z,0
2016-11-22T18:24:42.307Z,0
2016-11-22T18:26:15.893Z,0
2016-11-22T18:28:10.513Z,0
2016-11-22T18:29:45.799Z,0
2016-11-22T18:31:19.470Z,0
2016-11-22T18:32:54.808Z,0
2016-11-22T18:34:38.357Z,0
2016-11-22T18:36:32.274Z,0
2016-11-22T18:38:06.962Z,0
2016-11-22T18:39:41.147Z,0
2016-11-22T18:41:15.028Z,0
2016-11-22T18:42:44.587Z,0
2016-11-22T18:44:18.370Z,0
2016-11-22T18:45:52.951Z,0
2016-11-22T18:47:27.216Z,0
2016-11-22T18:48:56.277Z,0
2016-11-22T18:50:30.550Z,0
2016-11-22T18:52:03.007Z,0
2016-11-22T18:53:37.809Z,0
2016-11-22T18:55:11.608Z,0
2016-11-22T18:56:41.804Z,0
2016-11-22T18:58:15.623Z,0
2016-11-22T18:59:45.130Z,0
2016-11-22T19:01:19.086Z,0
2016-11-22T19:02:54.672Z,0
2016-11-22T19:04:29.421Z,0
2016-11-22T19:05:59.208Z,0
2016-11-22T19:07:34.179Z,0
2016-11-22T19:09:03.186Z,0
2016-11-22T19:10:38.352Z,0
2016-11-22T19:12:13.069Z,0
2016-11-22T19:13:47.773Z,0
2016-11-22T19:15:23.264Z,0
2016-11-22T19:16:58.101Z,0
2016-11-22T19:18:39.201Z,0
2016-11-22T19:20:14.866Z,0
2016-11-22T19:22:08.799Z,0
2016-11-22T19:23:45.234Z,0
2016-11-22T19:25:19.211Z,0
2016-11-22T19:26:53.548Z,0
2016-11-22T19:28:27.867Z,0
2016-11-22T19:30:03.059Z,0
2016-11-22T19:31:57.637Z,0
2016-11-22T19:33:39.868Z,0
2016-11-22T19:35:33.513Z,0
2016-11-22T19:37:09.887Z,0
2016-11-22T19:38:43.763Z,0
2016-11-22T19:40:19.468Z,0
2016-11-22T19:41:53.662Z,0
2016-11-22T19:43:22.767Z,0
2016-11-22T19:44:56.847Z,0
2016-11-22T19:46:32.662Z,0
2016-11-22T19:48:06.341Z,0
2016-11-22T19:49:40.783Z,0
2016-11-22T19:51:14.482Z,0
2016-11-22T19:52:48.305Z,0
2016-11-22T19:54:40.108Z,0
2016-11-22T19:55:55.080Z,0
2016-11-22T19:57:28.791Z,0
2016-11-22T19:59:22.009Z,0
2016-11-22T20:00:37.158Z,0
2016-11-22T20:02:33.252Z,0
2016-11-22T20:04:07.659Z,0
2016-11-22T20:05:40.931Z,0
2016-11-22T20:07:15.009Z,0
2016-11-22T20:08:48.944Z,0
2016-11-22T20:10:23.943Z,0
2016-11-22T20:11:59.521Z,0
2016-11-22T20:13:36.703Z,0
2016-11-22T20:15:30.640Z,0
2016-11-22T20:17:04.738Z,0
2016-11-22T20:18:38.038Z,0
2016-11-22T20:20:12.167Z,0
2016-11-22T20:21:47.688Z,0
2016-11-22T20:23:21.055Z,0
2016-11-22T20:24:54.802Z,0
2016-11-22T20:26:28.536Z,0
2016-11-22T20:28:03.323Z,0
2016-11-22T20:29:38.075Z,0
2016-11-22T20:31:31.145Z,0
2016-11-22T20:33:04.934Z,0
2016-11-22T20:34:45.539Z,0
2016-11-22T20:36:18.959Z,0
2016-11-22T20:37:52.310Z,0
2016-11-22T20:39:46.834Z,0
2016-11-22T20:41:20.716Z,0
2016-11-22T20:42:54.456Z,0
2016-11-22T20:44:28.382Z,0
2016-11-22T20:46:02.753Z,0
2016-11-22T20:47:38.189Z,0
2016-11-22T20:49:12.877Z,0
2016-11-22T20:50:46.726Z,0
2016-11-22T20:52:21.045Z,0
2016-11-22T20:54:14.949Z,0
2016-11-22T20:55:49.445Z,0
2016-11-22T20:57:24.311Z,0
2016-11-22T20:58:52.950Z,0
2016-11-22T21:00:26.991Z,0
2016-11-22T21:02:01.330Z,0
2016-11-22T21:03:35.322Z,0
2016-11-22T21:05:09.142Z,0
2016-11-22T21:06:42.874Z,0
2016-11-22T21:08:17.388Z,0
2016-11-22T21:09:51.098Z,0
2016-11-22T21:11:25.395Z,0